createdAt,value
2023-05-03T00:02:09.794Z,8.25
2023-05-03T00:07:10.855Z,8.125
2023-05-03T00:12:11.708Z,8.0625
2023-05-03T00:17:12.812Z,8.0625
2023-05-03T00:22:13.816Z,8
2023-05-03T00:27:14.972Z,8
2023-05-03T00:32:15.962Z,8
2023-05-03T00:37:16.911Z,7.9375
2023-05-03T00:42:17.848Z,7.8125
2023-05-03T00:47:18.966Z,7.8125
2023-05-03T00:52:19.940Z,7.6875
2023-05-03T00:57:20.742Z,7.5
2023-05-03T01:02:21.812Z,7.625
2023-05-03T01:07:22.776Z,7.4375
2023-05-03T01:12:23.639Z,7.375
2023-05-03T01:17:24.587Z,7.25
2023-05-03T01:22:25.525Z,7.1875
2023-05-03T01:27:26.527Z,7.25
2023-05-03T01:32:27.518Z,7.0625
2023-05-03T01:37:28.431Z,7.1875
2023-05-03T01:42:29.267Z,7.0625
2023-05-03T01:47:30.402Z,7
2023-05-03T01:52:31.183Z,6.875
2023-05-03T01:57:32.128Z,6.9375
2023-05-03T02:02:33.074Z,6.6875
2023-05-03T02:07:34.184Z,6.5625
2023-05-03T02:12:35.105Z,6.4375
2023-05-03T02:17:35.957Z,6.5
2023-05-03T02:22:36.916Z,6.4375
2023-05-03T02:27:37.955Z,6.375
2023-05-03T02:32:38.813Z,6.4375
2023-05-03T02:37:39.920Z,6.375
2023-05-03T02:42:40.682Z,6.1875
2023-05-03T02:47:41.657Z,6
2023-05-03T02:52:42.291Z,6.0625
2023-05-03T02:57:43.268Z,6.3125
2023-05-03T03:02:44.304Z,6.0625
2023-05-03T03:07:45.184Z,6.125
2023-05-03T03:12:46.205Z,5.9375
2023-05-03T03:17:47.272Z,5.9375
2023-05-03T03:22:48.086Z,6
2023-05-03T03:27:49.011Z,5.8125
2023-05-03T03:32:49.951Z,5.75
2023-05-03T03:37:50.993Z,5.8125
2023-05-03T03:42:51.933Z,5.6875
2023-05-03T03:47:53.641Z,5.5625
2023-05-03T03:52:53.689Z,5.5
2023-05-03T03:57:54.584Z,5.5
2023-05-03T04:02:55.616Z,5.5
2023-05-03T04:07:56.554Z,5.5
2023-05-03T04:12:57.406Z,5.4375
2023-05-03T04:17:58.468Z,5.5625
2023-05-03T04:22:59.598Z,5.5
2023-05-03T04:28:00.649Z,5.5
2023-05-03T04:33:01.643Z,5.625
2023-05-03T04:38:02.545Z,5.6875
2023-05-03T04:43:03.472Z,5.8125
2023-05-03T04:48:05.557Z,5.8125
2023-05-03T04:53:05.242Z,6
2023-05-03T04:58:06.167Z,6.125
2023-05-03T05:03:07.192Z,6.25
2023-05-03T05:08:07.983Z,6.1875
2023-05-03T05:13:08.938Z,6.375
2023-05-03T05:18:10.021Z,6.5
2023-05-03T05:23:11.010Z,6.5625
2023-05-03T05:28:11.862Z,6.625
2023-05-03T05:33:12.664Z,6.75
2023-05-03T05:38:13.570Z,6.875
2023-05-03T05:43:14.354Z,7
2023-05-03T05:48:15.709Z,7.1875
2023-05-03T05:53:16.669Z,7.3125
2023-05-03T05:58:17.722Z,7.4375
2023-05-03T06:03:18.588Z,7.375
2023-05-03T06:08:19.441Z,7.5
2023-05-03T06:13:20.625Z,7.9375
2023-05-03T06:18:21.398Z,7.8125
2023-05-03T06:23:22.806Z,8.0625
2023-05-03T06:28:24.144Z,8.5625
2023-05-03T06:33:25.307Z,8.5625
2023-05-03T06:38:26.532Z,9.6875
2023-05-03T06:43:27.834Z,10.75
2023-05-03T06:48:28.910Z,10
2023-05-03T06:53:29.813Z,12.75
2023-05-03T06:58:30.806Z,15.375
2023-05-03T07:03:31.994Z,14.6875
2023-05-03T07:08:32.820Z,15.8125
2023-05-03T07:13:34.103Z,17.25
2023-05-03T07:18:34.951Z,16.75
2023-05-03T07:23:35.959Z,16.5
2023-05-03T07:28:36.771Z,17.5
2023-05-03T07:34:43.660Z,17.25
2023-05-03T07:38:38.774Z,18.4375
2023-05-03T07:43:39.825Z,17.625
2023-05-03T07:48:40.795Z,17.75
2023-05-03T07:53:41.831Z,18.25
2023-05-03T07:58:44.966Z,18.125
2023-05-03T08:03:44.083Z,18.5625
2023-05-03T08:08:44.972Z,18.75
2023-05-03T08:13:46.059Z,17.4375
2023-05-03T08:18:47.044Z,18.5625
2023-05-03T08:23:47.835Z,17.875
2023-05-03T08:28:48.743Z,19.3125
2023-05-03T08:33:49.611Z,19.125
2023-05-03T08:38:50.941Z,18.5625
2023-05-03T08:43:51.617Z,18.25
2023-05-03T08:48:52.511Z,18.5625
2023-05-03T08:53:53.361Z,18.4375
2023-05-03T08:58:54.300Z,16.375
2023-05-03T09:03:55.276Z,13.3125
2023-05-03T09:08:56.220Z,13.4375
2023-05-03T09:13:57.161Z,12.25
2023-05-03T09:18:58.237Z,12.8125
2023-05-03T09:23:59.313Z,13.125
2023-05-03T09:29:00.155Z,12.3125
2023-05-03T09:34:01.172Z,11.625
2023-05-03T09:39:02.417Z,11.3125
2023-05-03T09:44:03.016Z,11.75
2023-05-03T09:49:04.721Z,11.4375
2023-05-03T09:54:05.156Z,12.3125
2023-05-03T09:59:06.008Z,12.75
2023-05-03T10:04:06.927Z,12.5
2023-05-03T10:09:07.848Z,13
2023-05-03T10:14:08.846Z,12.8125
2023-05-03T10:19:10.182Z,12.5
2023-05-03T10:24:10.756Z,13.125
2023-05-03T10:29:11.687Z,12.9375
2023-05-03T10:34:12.516Z,12.625
2023-05-03T10:39:13.668Z,12.625
2023-05-03T10:44:14.533Z,12.75
2023-05-03T10:49:16.413Z,12.3125
2023-05-03T10:54:16.529Z,13
2023-05-03T10:59:17.510Z,12.0625
2023-05-03T11:04:18.403Z,12.125
2023-05-03T11:09:19.279Z,12.5
2023-05-03T11:14:20.316Z,12.875
2023-05-03T11:19:21.302Z,12.5
2023-05-03T11:24:22.290Z,12.4375
2023-05-03T11:29:23.294Z,12.6875
2023-05-03T11:34:24.225Z,12.6875
2023-05-03T11:39:25.406Z,12.875
2023-05-03T11:44:26.273Z,12.625
2023-05-03T11:49:28.028Z,13
2023-05-03T11:54:28.218Z,12.875
2023-05-03T11:59:29.174Z,12.875
2023-05-03T12:04:30.278Z,12.6875
2023-05-03T12:09:31.626Z,12.4375
2023-05-03T12:14:33.070Z,13.3125
2023-05-03T12:19:34.310Z,13.125
2023-05-03T12:24:34.145Z,13.4375
2023-05-03T12:29:35.643Z,13.4375
2023-05-03T12:34:36.845Z,13.625
2023-05-03T12:39:39.482Z,13.625
2023-05-03T12:44:40.677Z,14.1875
2023-05-03T12:49:40.034Z,13.75
2023-05-03T12:54:42.027Z,13.1875
2023-05-03T12:59:42.745Z,13.5
2023-05-03T13:14:43.220Z,13.125
2023-05-03T13:19:43.928Z,13.0625
2023-05-03T13:24:45.181Z,13.4375
2023-05-03T13:29:48.415Z,13.3125
2023-05-03T13:34:47.205Z,13.625
2023-05-03T13:39:48.301Z,13.75
2023-05-03T13:44:49.100Z,13.5
2023-05-03T13:49:50.672Z,13.5625
2023-05-03T13:54:51.030Z,13.625
2023-05-03T13:59:52.030Z,13.75
2023-05-03T14:04:53.229Z,13.5
2023-05-03T14:09:54.596Z,13.6875
2023-05-03T14:14:55.587Z,13.8125
2023-05-03T14:19:56.538Z,13.625
2023-05-03T14:24:57.484Z,13.75
2023-05-03T14:29:58.220Z,14.5
2023-05-03T14:34:59.238Z,14.125
2023-05-03T14:40:00.514Z,14.5
2023-05-03T14:45:01.591Z,14.25
2023-05-03T14:50:03.400Z,14.125
2023-05-03T14:55:03.703Z,13.9375
2023-05-03T15:00:04.596Z,14
2023-05-03T15:05:05.114Z,13.875
2023-05-03T15:10:06.683Z,13.9375
2023-05-03T15:15:07.414Z,13.9375
2023-05-03T15:20:08.265Z,14
2023-05-03T15:25:09.450Z,13.875
2023-05-03T15:30:10.579Z,14.0625
2023-05-03T15:35:11.717Z,14.4375
2023-05-03T15:40:12.612Z,14.5
2023-05-03T15:45:13.614Z,14.5
2023-05-03T15:50:14.335Z,14.5625
2023-05-03T15:55:15.251Z,14.4375
2023-05-03T16:00:16.220Z,14.125
2023-05-03T16:05:17.269Z,14.0625
2023-05-03T16:10:17.999Z,14.25
2023-05-03T16:15:18.712Z,14
2023-05-03T16:20:19.743Z,14.1875
2023-05-03T16:25:20.700Z,14.1875
2023-05-03T16:30:21.352Z,14.25
2023-05-03T16:35:22.132Z,14.3125
2023-05-03T16:40:23.265Z,14.125
2023-05-03T16:45:24.210Z,14.125
2023-05-03T16:50:25.553Z,14
2023-05-03T16:55:26.088Z,14.0625
2023-05-03T17:00:26.993Z,14
2023-05-03T17:05:27.994Z,14.0625
2023-05-03T17:10:29.048Z,14
2023-05-03T17:15:30.068Z,13.9375
2023-05-03T17:20:31.053Z,13.8125
2023-05-03T17:25:32.012Z,13.5
2023-05-03T17:30:32.880Z,13.5625
2023-05-03T17:35:33.648Z,13.5625
2023-05-03T17:40:34.621Z,13.5
2023-05-03T17:45:35.451Z,13.375
2023-05-03T17:50:36.743Z,13.25
2023-05-03T17:55:37.183Z,13.125
2023-05-03T18:00:38.110Z,13.125
2023-05-03T18:05:39.000Z,13.0625
2023-05-03T18:10:39.927Z,12.875
2023-05-03T18:15:41.612Z,12.75
2023-05-03T18:20:41.814Z,12.6875
2023-05-03T18:25:42.787Z,12.625
2023-05-03T18:30:43.780Z,12.5
2023-05-03T18:35:44.669Z,12.25
2023-05-03T18:40:45.471Z,12.1875
2023-05-03T18:45:46.454Z,12.1875
2023-05-03T18:50:47.441Z,12
2023-05-03T18:55:48.507Z,11.9375
2023-05-03T19:00:49.583Z,11.75
2023-05-03T19:05:50.303Z,11.5625
2023-05-03T19:10:51.312Z,11.4375
2023-05-03T19:15:52.289Z,11.3125
2023-05-03T19:20:53.191Z,11.0625
2023-05-03T19:25:54.232Z,10.625
2023-05-03T19:30:55.175Z,10.8125
2023-05-03T19:35:57.379Z,10.8125
2023-05-03T19:40:56.916Z,10.6875
2023-05-03T19:45:57.904Z,10.3125
2023-05-03T19:50:59.440Z,10.25
2023-05-03T19:55:59.810Z,10
2023-05-03T20:01:00.645Z,10.1875
2023-05-03T20:06:01.543Z,10.1875
2023-05-03T20:11:02.620Z,10.125
2023-05-03T20:16:03.261Z,10
2023-05-03T20:21:04.075Z,10
2023-05-03T20:26:05.109Z,10.25
2023-05-03T20:31:05.871Z,10.1875
2023-05-03T20:36:06.857Z,10.125
2023-05-03T20:41:07.895Z,10.0625
2023-05-03T20:46:08.859Z,9.6875
2023-05-03T20:51:10.214Z,9.5
2023-05-03T20:56:10.623Z,9.4375
2023-05-03T21:01:12.084Z,9.3125
2023-05-03T21:06:12.786Z,9.3125
2023-05-03T21:11:13.896Z,9.3125
2023-05-03T21:16:15.071Z,9.25
2023-05-03T21:21:15.812Z,9.125
2023-05-03T21:26:16.918Z,8.8125
2023-05-03T21:31:17.859Z,8.8125
2023-05-03T21:36:18.877Z,8.9375
2023-05-03T21:41:19.755Z,9.1875
2023-05-03T21:46:20.788Z,9.1875
2023-05-03T21:51:21.845Z,9.25
2023-05-03T21:56:22.795Z,9.1875
2023-05-03T22:01:23.766Z,9.4375
2023-05-03T22:06:24.512Z,9.375
2023-05-03T22:11:25.313Z,9.375
2023-05-03T22:16:26.232Z,9.5
2023-05-03T22:21:27.218Z,9.4375
2023-05-03T22:26:28.186Z,9.375
2023-05-03T22:31:29.218Z,9.25
2023-05-03T22:36:30.221Z,9.25
2023-05-03T22:41:31.129Z,9.25
2023-05-03T22:46:31.946Z,9.125
2023-05-03T22:51:33.310Z,9.0625
2023-05-03T22:56:33.787Z,9.0625
2023-05-03T23:01:34.883Z,8.9375
2023-05-03T23:06:35.913Z,8.8125
2023-05-03T23:11:36.833Z,8.75
2023-05-03T23:16:37.613Z,8.5625
2023-05-03T23:21:38.708Z,8.625
2023-05-03T23:26:40.032Z,8.6875
2023-05-03T23:31:40.992Z,8.625
2023-05-03T23:36:41.919Z,8.5
2023-05-03T23:41:42.767Z,8.5625
2023-05-03T23:46:43.692Z,8.5
2023-05-03T23:51:44.999Z,8.3125
2023-05-03T23:56:45.703Z,8.25
